Time;durP1;ratioP1;P1;durP2;ratioP2;P2;SDS_P1;SDS_P2;PMS_P1;PMS_P2;Temp;Humidity;BMP_temperature;BMP_pressure;BME280_temperature;BME280_humidity;BME280_pressure;Samples;Min_cycle;Max_cycle;Signal;HPM_P1;HPM_P2
2021/08/06 00:00:17;;;;;;;4.37;1.80;;;;;;;17.68;73.91;97040.64;125683;1095;102916;-79
2021/08/06 00:03:08;;;;;;;4.23;2.13;;;;;;;17.65;74.05;97041.87;125697;1096;103004;-79
2021/08/06 00:05:39;;;;;;;4.20;2.03;;;;;;;17.66;73.54;97046.21;125724;1097;103004;-77
2021/08/06 00:08:07;;;;;;;4.50;2.20;;;;;;;17.63;73.68;97040.44;125673;1097;103144;-77
2021/08/06 00:10:35;;;;;;;3.87;2.50;;;;;;;17.61;73.97;97045.19;125739;1096;102942;-77
2021/08/06 00:13:04;;;;;;;2.77;2.30;;;;;;;17.62;73.72;97039.59;125654;1096;102949;-78
2021/08/06 00:15:32;;;;;;;5.20;2.70;;;;;;;17.65;73.82;97032.99;125724;1095;102933;-78
2021/08/06 00:18:01;;;;;;;5.07;2.90;;;;;;;17.68;73.95;97035.27;125753;1096;103055;-78
2021/08/06 00:20:31;;;;;;;4.33;2.80;;;;;;;17.70;74.06;97047.45;125664;1096;103007;-78
2021/08/06 00:23:00;;;;;;;8.27;3.33;;;;;;;17.70;73.70;97058.21;125698;1095;103345;-78
2021/08/06 00:25:28;;;;;;;5.20;2.40;;;;;;;17.70;73.64;97054.70;125637;1097;102921;-78
2021/08/06 00:27:56;;;;;;;4.73;2.37;;;;;;;17.67;74.19;97060.50;125699;1097;103065;-79
2021/08/06 00:30:27;;;;;;;3.50;2.70;;;;;;;17.66;73.75;97064.22;125682;1095;102991;-79
2021/08/06 00:32:57;;;;;;;3.90;2.63;;;;;;;17.65;74.13;97067.94;125672;1097;103060;-79
2021/08/06 00:35:26;;;;;;;4.47;2.73;;;;;;;17.65;74.05;97074.13;125645;1097;103018;-79
2021/08/06 00:37:54;;;;;;;15.80;3.63;;;;;;;17.67;74.04;97084.69;125632;1096;103438;-78
2021/08/06 00:40:25;;;;;;;4.17;2.40;;;;;;;17.65;74.11;97082.19;125659;1096;103025;-78
2021/08/06 00:42:55;;;;;;;7.07;2.57;;;;;;;17.65;74.16;97090.26;125714;1095;103058;-77
2021/08/06 00:45:24;;;;;;;2.37;1.87;;;;;;;17.63;74.01;97080.75;125705;1094;103033;-79
2021/08/06 00:47:53;;;;;;;8.63;1.80;;;;;;;17.59;73.78;97085.70;125481;1096;103006;-80
2021/08/06 00:50:22;;;;;;;7.20;1.93;;;;;;;17.56;73.97;97080.73;125674;1096;103058;-79
2021/08/06 00:52:53;;;;;;;4.20;1.77;;;;;;;17.53;73.94;97089.20;125739;1096;102998;-78
2021/08/06 00:55:22;;;;;;;2.83;1.53;;;;;;;17.50;73.73;97090.45;125668;1095;103038;-79
2021/08/06 00:57:50;;;;;;;2.00;1.27;;;;;;;17.47;74.09;97093.55;125652;1095;103028;-80
2021/08/06 01:00:20;;;;;;;4.27;1.23;;;;;;;17.43;74.16;97100.36;125667;1096;102914;-79
2021/08/06 01:03:00;;;;;;;1.47;0.80;;;;;;;17.41;73.79;97102.42;125679;1095;103546;-79
2021/08/06 01:05:42;;;;;;;2.60;0.57;;;;;;;17.40;73.92;97098.92;125717;1095;102997;-80
2021/08/06 01:08:19;;;;;;;2.73;0.87;;;;;;;17.39;74.11;97091.89;125696;1096;103460;-80
2021/08/06 01:10:57;;;;;;;0.80;0.57;;;;;;;17.40;74.04;97085.48;125669;1096;103031;-82
2021/08/06 01:13:52;;;;;;;3.33;0.60;;;;;;;17.39;73.89;97088.36;125758;1096;103013;-81
2021/08/06 01:16:30;;;;;;;0.80;0.53;;;;;;;17.38;74.19;97092.92;125665;1096;102942;-83
2021/08/06 01:19:06;;;;;;;0.37;0.30;;;;;;;17.36;74.23;97089.61;125707;1096;103017;-80
2021/08/06 01:21:42;;;;;;;2.80;0.40;;;;;;;17.33;74.37;97089.17;125690;1096;103105;-80
2021/08/06 01:24:23;;;;;;;1.93;0.57;;;;;;;17.31;74.06;97094.77;125707;1096;103024;-80
2021/08/06 01:26:53;;;;;;;1.07;0.40;;;;;;;17.30;73.85;97100.35;125675;1095;102923;-79
2021/08/06 01:29:25;;;;;;;3.03;0.40;;;;;;;17.29;73.77;97096.01;125687;1097;103041;-79
2021/08/06 01:31:54;;;;;;;3.00;0.30;;;;;;;17.28;73.94;97086.29;125713;1096;102969;-79
2021/08/06 01:34:23;;;;;;;1.93;0.30;;;;;;;17.26;74.25;97089.16;125678;1096;103007;-79
2021/08/06 01:36:51;;;;;;;2.30;0.40;;;;;;;17.24;73.94;97086.70;125640;1094;103037;-81
2021/08/06 01:39:22;;;;;;;1.83;0.20;;;;;;;17.23;74.13;97086.88;125680;1097;103423;-80
2021/08/06 01:42:04;;;;;;;0.45;0.35;;;;;;;17.24;74.09;97075.11;125703;1096;102916;-83
2021/08/06 01:44:53;;;;;;;0.87;0.40;;;;;;;17.24;74.16;97072.42;125689;1095;102943;-82
2021/08/06 01:47:38;;;;;;;2.23;0.60;;;;;;;17.20;73.84;97074.70;125678;1096;102980;-84
2021/08/06 01:50:15;;;;;;;0.97;0.33;;;;;;;17.19;73.79;97069.52;125452;1096;102946;-81
2021/08/06 01:52:59;;;;;;;0.70;0.30;;;;;;;17.16;74.34;97075.29;125649;1095;103058;-81
2021/08/06 01:55:51;;;;;;;1.27;0.20;;;;;;;17.13;74.28;97073.00;125676;1096;103055;-79
2021/08/06 01:58:22;;;;;;;1.97;0.63;;;;;;;17.11;74.03;97074.06;125640;1096;103104;-79
2021/08/06 02:00:53;;;;;;;0.60;0.30;;;;;;;17.11;74.14;97071.38;125732;1096;103136;-78
2021/08/06 02:03:24;;;;;;;2.43;0.50;;;;;;;17.10;74.04;97072.41;125678;1096;103066;-78
2021/08/06 02:05:55;;;;;;;0.70;0.50;;;;;;;17.09;73.92;97073.44;125680;1096;102926;-79
2021/08/06 02:08:23;;;;;;;2.47;0.50;;;;;;;17.07;73.90;97072.81;125675;1097;102940;-79
2021/08/06 02:10:53;;;;;;;0.53;0.17;;;;;;;17.06;73.86;97071.16;125713;1096;102948;-79
2021/08/06 02:13:22;;;;;;;1.83;0.50;;;;;;;17.04;74.25;97069.69;125685;1096;103252;-79
2021/08/06 02:15:53;;;;;;;0.87;0.40;;;;;;;17.03;74.33;97073.39;125647;1095;103035;-79
2021/08/06 02:18:26;;;;;;;0.57;0.30;;;;;;;17.03;74.30;97076.08;125706;1097;103042;-81
2021/08/06 02:20:59;;;;;;;0.90;0.53;;;;;;;17.02;74.19;97074.42;125666;1096;103007;-79
2021/08/06 02:23:30;;;;;;;1.93;0.58;;;;;;;17.01;74.01;97075.45;125691;1096;102995;-79
2021/08/06 02:26:02;;;;;;;2.50;0.25;;;;;;;16.99;74.30;97072.98;125657;1095;102983;-79
2021/08/06 02:28:34;;;;;;;0.55;0.30;;;;;;;16.98;73.74;97067.80;125661;1097;103061;-80
2021/08/06 02:31:05;;;;;;;1.07;0.20;;;;;;;16.94;74.31;97064.67;125726;1095;103035;-79
2021/08/06 02:33:36;;;;;;;4.20;0.53;;;;;;;16.93;74.38;97069.20;125700;1097;102997;-81
2021/08/06 02:36:06;;;;;;;3.23;0.60;;;;;;;16.93;74.09;97065.70;125686;1097;102916;-80
2021/08/06 02:38:38;;;;;;;1.63;0.20;;;;;;;16.91;74.30;97065.89;125686;1096;103027;-80
2021/08/06 02:41:09;;;;;;;1.07;0.40;;;;;;;16.92;74.02;97072.91;125673;1095;103040;-80
2021/08/06 02:43:39;;;;;;;2.23;0.43;;;;;;;16.91;74.37;97073.13;125707;1094;102933;-81
2021/08/06 02:46:10;;;;;;;1.83;0.20;;;;;;;16.88;74.41;97060.11;125671;1096;102933;-81
2021/08/06 02:48:38;;;;;;;1.50;0.40;;;;;;;16.85;74.30;97063.19;125699;1095;103016;-81
2021/08/06 02:51:09;;;;;;;1.23;0.30;;;;;;;16.84;74.10;97067.74;125728;1097;102943;-82
2021/08/06 02:53:38;;;;;;;0.50;0.30;;;;;;;16.85;74.07;97074.77;125865;1095;103217;-82
2021/08/06 02:56:07;;;;;;;0.20;0.20;;;;;;;16.85;74.04;97076.61;125575;1095;103001;-81
2021/08/06 02:58:35;;;;;;;0.40;0.30;;;;;;;16.85;74.38;97077.45;125614;1095;103014;-83
2021/08/06 03:01:03;;;;;;;2.73;0.30;;;;;;;16.86;74.43;97079.11;125651;1096;103094;-82
2021/08/06 03:03:32;;;;;;;3.00;0.50;;;;;;;16.85;74.46;97080.14;125651;1094;103001;-81
2021/08/06 03:06:01;;;;;;;2.10;0.30;;;;;;;16.85;74.41;97084.67;125554;1095;103640;-81
2021/08/06 03:08:32;;;;;;;1.20;0.40;;;;;;;16.84;74.46;97081.17;125673;1095;102945;-82
2021/08/06 03:11:04;;;;;;;0.10;0.10;;;;;;;16.82;74.18;97083.23;125625;1095;102911;-82
2021/08/06 03:13:33;;;;;;;0.23;0.20;;;;;;;16.80;74.03;97086.09;125640;1095;102953;-81
2021/08/06 03:16:02;;;;;;;1.53;0.30;;;;;;;16.81;74.46;97086.94;125708;1095;102939;-82
2021/08/06 03:18:30;;;;;;;1.35;0.30;;;;;;;16.81;74.44;97084.25;125769;1095;103029;-81
2021/08/06 03:20:59;;;;;;;2.13;0.30;;;;;;;16.78;74.15;97090.83;125683;1095;103130;-80
2021/08/06 03:23:27;;;;;;;0.90;0.20;;;;;;;16.78;74.68;97092.70;125635;1096;103035;-80
2021/08/06 03:25:55;;;;;;;4.70;1.00;;;;;;;16.78;74.56;97090.83;125647;1095;103035;-80
2021/08/06 03:28:24;;;;;;;2.20;0.20;;;;;;;16.78;74.59;97090.83;125655;1096;102956;-80
2021/08/06 03:30:54;;;;;;;0.53;0.40;;;;;;;16.77;74.25;97102.59;125620;1095;103068;-80
2021/08/06 03:33:23;;;;;;;0.70;0.33;;;;;;;16.77;74.18;97102.59;125651;1097;102915;-81
2021/08/06 03:35:51;;;;;;;0.97;0.33;;;;;;;16.76;74.91;97103.63;125649;1095;103034;-81
2021/08/06 03:38:26;;;;;;;1.90;0.50;;;;;;;16.75;74.62;97104.66;125666;1096;103013;-80
2021/08/06 03:40:54;;;;;;;1.53;0.48;;;;;;;16.74;74.44;97112.92;125625;1095;103065;-81
2021/08/06 03:43:23;;;;;;;1.20;0.30;;;;;;;16.73;74.61;97111.27;125613;1095;103183;-82
2021/08/06 03:45:51;;;;;;;1.00;0.40;;;;;;;16.72;74.55;97113.11;125648;1095;103039;-81
2021/08/06 03:48:19;;;;;;;1.33;0.50;;;;;;;16.71;74.46;97113.31;125780;1095;102998;-82
2021/08/06 03:50:50;;;;;;;2.73;0.53;;;;;;;16.71;74.36;97108.77;125948;1095;103006;-82
2021/08/06 03:53:18;;;;;;;1.10;0.30;;;;;;;16.71;74.68;97113.31;125846;1095;103004;-81
2021/08/06 03:55:46;;;;;;;1.73;0.53;;;;;;;16.69;74.58;97113.53;125692;1095;102915;-82
2021/08/06 03:58:15;;;;;;;2.07;0.60;;;;;;;16.67;74.44;97113.71;125549;1096;102958;-81
2021/08/06 04:00:43;;;;;;;0.77;0.60;;;;;;;16.66;74.52;97119.30;125755;1096;102914;-79
2021/08/06 04:03:12;;;;;;;0.83;0.60;;;;;;;16.66;74.45;97125.47;126307;1096;103052;-79
2021/08/06 04:05:40;;;;;;;1.10;0.67;;;;;;;16.65;74.26;97123.00;125672;1096;103083;-79
2021/08/06 04:08:10;;;;;;;3.83;0.93;;;;;;;16.63;74.64;97119.69;125629;1095;103165;-80
2021/08/06 04:10:39;;;;;;;0.70;0.70;;;;;;;16.64;74.70;97132.89;125675;1096;103041;-78
2021/08/06 04:13:11;;;;;;;1.10;0.97;;;;;;;16.62;74.80;97120.71;125614;1095;102979;-80
2021/08/06 04:15:39;;;;;;;0.93;0.80;;;;;;;16.64;74.70;97119.47;125681;1094;103071;-79
2021/08/06 04:18:07;;;;;;;2.50;1.07;;;;;;;16.61;74.41;97124.42;125701;1095;103001;-76
2021/08/06 04:20:36;;;;;;;1.27;0.60;;;;;;;16.60;74.69;97126.27;125637;1093;103192;-75
2021/08/06 04:23:04;;;;;;;1.20;0.60;;;;;;;16.59;74.85;97115.74;125676;1093;102892;-74
2021/08/06 04:25:32;;;;;;;1.40;0.83;;;;;;;16.62;74.42;97126.08;126864;1095;100602;-75
2021/08/06 04:28:01;;;;;;;2.40;0.53;;;;;;;16.61;74.50;97121.73;125755;1094;102948;-75
2021/08/06 04:30:29;;;;;;;0.60;0.50;;;;;;;16.60;74.61;97120.08;125665;1096;102929;-73
2021/08/06 04:32:58;;;;;;;1.77;0.80;;;;;;;16.56;74.37;97122.31;125623;1095;103464;-81
2021/08/06 04:35:29;;;;;;;2.30;0.80;;;;;;;16.57;74.80;97129.34;125684;1095;102943;-77
2021/08/06 04:37:58;;;;;;;1.47;0.70;;;;;;;16.52;74.41;97126.42;125645;1092;102934;-82
2021/08/06 04:40:30;;;;;;;0.93;0.60;;;;;;;16.48;74.65;97135.91;125686;1095;102913;-80
2021/08/06 04:42:58;;;;;;;1.07;0.50;;;;;;;16.42;74.40;97142.88;125715;1097;104503;-79
2021/08/06 04:45:26;;;;;;;0.70;0.57;;;;;;;16.41;74.51;97135.04;125649;1093;102997;-80
2021/08/06 04:48:00;;;;;;;0.83;0.60;;;;;;;16.39;74.59;97142.45;125643;1093;103027;-81
2021/08/06 04:50:30;;;;;;;0.93;0.70;;;;;;;16.35;74.39;97150.89;125631;1093;102917;-81
2021/08/06 04:53:01;;;;;;;2.43;0.90;;;;;;;16.33;74.75;97142.20;125713;1095;102923;-82
2021/08/06 04:55:30;;;;;;;1.40;0.80;;;;;;;16.29;74.50;97140.13;125510;1096;103175;-82
2021/08/06 04:58:00;;;;;;;0.60;0.60;;;;;;;16.25;74.84;97145.03;125660;1095;103034;-81
2021/08/06 05:00:29;;;;;;;0.90;0.60;;;;;;;16.22;74.80;97143.58;125710;1096;102987;-83
2021/08/06 05:03:00;;;;;;;0.60;0.60;;;;;;;16.22;74.76;97164.20;125672;1096;103370;-83
2021/08/06 05:05:28;;;;;;;2.97;0.93;;;;;;;16.19;74.52;97162.75;125710;1092;102943;-86
2021/08/06 05:07:56;;;;;;;1.60;1.00;;;;;;;16.16;74.80;97170.33;125689;1097;102995;-82
2021/08/06 05:10:27;;;;;;;1.83;0.80;;;;;;;16.14;74.63;97169.70;125665;1093;102939;-80
2021/08/06 05:12:55;;;;;;;2.20;0.93;;;;;;;16.14;74.77;97180.42;125646;1096;102916;-80
2021/08/06 05:15:23;;;;;;;0.80;0.80;;;;;;;16.12;74.86;97177.11;125713;1095;102939;-81
2021/08/06 05:17:51;;;;;;;2.15;0.75;;;;;;;16.10;74.79;97180.00;125697;1096;102941;-82
2021/08/06 05:20:20;;;;;;;1.17;1.00;;;;;;;16.12;74.79;97177.11;125695;1095;103062;-83
2021/08/06 05:22:51;;;;;;;1.10;1.00;;;;;;;16.10;74.68;97180.00;125669;1095;103022;-80
2021/08/06 05:25:20;;;;;;;1.40;0.90;;;;;;;16.08;75.01;97184.72;125651;1096;103009;-84
2021/08/06 05:27:49;;;;;;;1.00;0.90;;;;;;;16.06;74.91;97190.30;125662;1096;102998;-80
2021/08/06 05:30:22;;;;;;;1.00;0.80;;;;;;;16.04;75.00;97191.49;125702;1097;102919;-79
2021/08/06 05:32:54;;;;;;;1.35;1.20;;;;;;;16.03;75.06;97203.23;125719;1095;102914;-83
2021/08/06 05:35:23;;;;;;;2.00;1.33;;;;;;;16.01;75.06;97200.77;125474;1096;103221;-84
2021/08/06 05:37:57;;;;;;;2.13;1.07;;;;;;;16.01;75.12;97198.08;125697;1094;103349;-84
2021/08/06 05:40:29;;;;;;;1.50;1.40;;;;;;;16.01;74.94;97208.81;125676;1097;102938;-83
2021/08/06 05:43:00;;;;;;;1.47;1.20;;;;;;;16.03;74.91;97211.28;125626;1096;103075;-84
2021/08/06 05:45:29;;;;;;;1.70;1.50;;;;;;;16.03;75.08;97224.69;125702;1096;103046;-83
2021/08/06 05:47:57;;;;;;;3.27;1.53;;;;;;;16.03;74.99;97222.85;125638;1097;103272;-80
2021/08/06 05:50:40;;;;;;;2.97;1.50;;;;;;;16.03;75.28;97222.85;125651;1095;103094;-80
2021/08/06 05:53:08;;;;;;;2.03;1.17;;;;;;;16.02;74.96;97234.60;125645;1096;102978;-80
2021/08/06 05:55:37;;;;;;;3.30;1.10;;;;;;;16.01;75.33;97232.94;125650;1096;103185;-80
2021/08/06 05:58:05;;;;;;;2.03;1.67;;;;;;;16.03;75.26;97233.58;125675;1093;102924;-81
2021/08/06 06:00:37;;;;;;;1.30;1.20;;;;;;;16.03;75.21;97236.27;125669;1096;103368;-82
2021/08/06 06:03:06;;;;;;;1.50;1.40;;;;;;;16.02;75.06;97248.02;125653;1096;103012;-82
2021/08/06 06:05:34;;;;;;;1.60;1.20;;;;;;;16.04;75.05;97242.44;125658;1095;103008;-80
2021/08/06 06:08:03;;;;;;;2.50;1.65;;;;;;;16.04;75.28;97245.97;125724;1097;103031;-81
2021/08/06 06:10:31;;;;;;;1.73;1.13;;;;;;;16.05;75.11;97246.78;125614;1095;103160;-80
2021/08/06 06:13:00;;;;;;;1.90;1.53;;;;;;;16.05;75.34;97258.36;125786;1097;103016;-81
2021/08/06 06:15:32;;;;;;;6.47;1.40;;;;;;;16.06;75.22;97254.66;125692;1096;103006;-81
2021/08/06 06:18:00;;;;;;;1.90;1.37;;;;;;;16.06;75.34;97257.34;125642;1094;102995;-80
2021/08/06 06:20:28;;;;;;;1.27;1.17;;;;;;;16.06;75.33;97264.53;125718;1093;102930;-79
2021/08/06 06:22:57;;;;;;;2.10;1.27;;;;;;;16.07;75.40;97268.88;125666;1094;103022;-81
2021/08/06 06:25:25;;;;;;;1.70;1.50;;;;;;;16.05;75.20;97277.13;125519;1096;103457;-79
2021/08/06 06:28:00;;;;;;;2.10;1.90;;;;;;;16.04;75.36;97269.26;125654;1096;102998;-77
2021/08/06 06:30:32;;;;;;;2.10;1.60;;;;;;;16.05;75.29;97279.81;125631;1096;103182;-77
2021/08/06 06:33:04;;;;;;;1.43;1.33;;;;;;;16.09;75.41;97276.75;125674;1093;102916;-80
2021/08/06 06:35:33;;;;;;;4.03;1.40;;;;;;;16.07;75.25;97285.81;125659;1095;103068;-83
2021/08/06 06:38:01;;;;;;;1.60;1.50;;;;;;;16.09;75.40;97290.97;125632;1093;103249;-79
2021/08/06 06:40:32;;;;;;;2.53;1.90;;;;;;;16.09;75.51;97292.84;125694;1097;102939;-77
2021/08/06 06:43:01;;;;;;;6.20;1.70;;;;;;;16.11;75.54;97294.30;125682;1093;102935;-77
2021/08/06 06:45:30;;;;;;;2.90;1.90;;;;;;;16.09;75.26;97285.61;125678;1093;102998;-77
2021/08/06 06:47:58;;;;;;;4.63;2.30;;;;;;;16.09;75.43;97296.34;125683;1095;103154;-82
2021/08/06 06:50:30;;;;;;;2.50;2.30;;;;;;;16.10;75.46;97299.87;125656;1096;103003;-78
2021/08/06 06:53:02;;;;;;;4.93;2.37;;;;;;;16.08;75.48;97302.72;125622;1096;102979;-75
2021/08/06 06:55:30;;;;;;;2.97;2.07;;;;;;;16.09;75.35;97293.66;125645;1095;103460;-77
2021/08/06 06:57:59;;;;;;;2.60;2.10;;;;;;;16.09;75.47;97312.43;125701;1094;103008;-78
2021/08/06 07:00:31;;;;;;;2.67;2.10;;;;;;;16.09;75.38;97307.06;125627;1094;103043;-79
2021/08/06 07:03:00;;;;;;;1.75;1.65;;;;;;;16.13;75.65;97320.91;125629;1096;103544;-76
2021/08/06 07:05:29;;;;;;;2.17;1.97;;;;;;;16.12;75.30;97324.61;125672;1095;103048;-78
2021/08/06 07:08:02;;;;;;;4.20;1.83;;;;;;;16.09;75.43;97328.52;125638;1097;102918;-76
2021/08/06 07:10:33;;;;;;;2.15;1.95;;;;;;;16.07;75.35;97335.92;125711;1094;103009;-73
2021/08/06 07:13:02;;;;;;;3.20;1.90;;;;;;;16.06;75.46;97342.30;125636;1094;102922;-74
2021/08/06 07:15:30;;;;;;;1.77;1.67;;;;;;;16.03;75.51;97338.16;125633;1094;103711;-76
2021/08/06 07:17:58;;;;;;;2.47;1.60;;;;;;;16.02;75.55;97339.19;125829;1096;102948;-80
2021/08/06 07:20:30;;;;;;;3.47;1.80;;;;;;;16.02;75.69;97346.38;125647;1096;103122;-72
2021/08/06 07:22:58;;;;;;;1.80;1.63;;;;;;;15.97;75.46;97360.36;125665;1096;102916;-73
2021/08/06 07:25:27;;;;;;;1.77;1.67;;;;;;;15.93;75.65;97359.08;125689;1094;103010;-75
2021/08/06 07:27:58;;;;;;;3.45;1.90;;;;;;;15.90;75.56;97362.13;125654;1093;103637;-75
2021/08/06 07:30:27;;;;;;;3.03;2.20;;;;;;;15.87;75.62;97363.35;125654;1095;103035;-74
2021/08/06 07:32:58;;;;;;;2.30;2.10;;;;;;;15.88;75.63;97369.53;125665;1095;102917;-75
2021/08/06 07:35:31;;;;;;;2.70;2.13;;;;;;;15.85;75.66;97372.55;125651;1095;103653;-76
2021/08/06 07:38:02;;;;;;;;;;;;;;;15.83;75.76;97383.47;125688;1095;102941;-77
2021/08/06 07:40:30;;;;;;;2.90;2.43;;;;;;;15.78;75.42;97372.48;125597;1095;103029;-77
2021/08/06 07:43:00;;;;;;;2.80;2.43;;;;;;;15.77;75.72;97384.22;125752;1096;102916;-76
2021/08/06 07:45:32;;;;;;;4.33;2.40;;;;;;;15.75;75.65;97391.61;125676;1096;102981;-76
2021/08/06 07:48:01;;;;;;;4.47;2.67;;;;;;;15.72;75.71;97390.12;125687;1096;103028;-76
2021/08/06 07:50:29;;;;;;;4.37;3.10;;;;;;;15.73;75.67;97397.14;125646;1097;103064;-75
2021/08/06 07:52:57;;;;;;;5.13;3.00;;;;;;;15.72;75.69;97405.38;125537;1096;103025;-76
2021/08/06 07:55:26;;;;;;;4.65;3.00;;;;;;;15.70;75.74;97412.78;125713;1092;102919;-77
2021/08/06 07:57:59;;;;;;;3.68;3.13;;;;;;;15.66;75.74;97412.33;125683;1095;102922;-77
2021/08/06 08:00:27;;;;;;;4.77;3.47;;;;;;;15.65;75.76;97409.81;125744;1094;102917;-84
2021/08/06 08:02:57;;;;;;;5.63;3.43;;;;;;;15.62;75.73;97409.17;125940;1094;103159;-78
2021/08/06 08:05:27;;;;;;;6.13;3.70;;;;;;;15.65;75.98;97407.98;125678;1093;103021;-75
2021/08/06 08:07:55;;;;;;;5.57;3.63;;;;;;;15.66;75.68;97411.48;125701;1093;102913;-74
2021/08/06 08:10:35;;;;;;;5.87;4.13;;;;;;;15.65;75.81;97410.66;125660;1093;102912;-74
2021/08/06 08:13:13;;;;;;;7.90;4.37;;;;;;;15.65;75.83;97418.70;125666;1095;102915;-75
2021/08/06 08:15:42;;;;;;;6.85;4.70;;;;;;;15.65;75.79;97424.06;125689;1095;102911;-75
2021/08/06 08:18:11;;;;;;;8.97;4.70;;;;;;;15.66;75.80;97432.92;125654;1093;102999;-75
2021/08/06 08:20:43;;;;;;;8.13;4.70;;;;;;;15.65;75.65;97431.26;125672;1095;102898;-75
2021/08/06 08:23:11;;;;;;;9.60;5.53;;;;;;;15.63;75.67;97432.27;125732;1093;103030;-74
2021/08/06 08:25:41;;;;;;;7.97;5.30;;;;;;;15.63;75.86;97440.31;125641;1095;102894;-76
2021/08/06 08:28:12;;;;;;;7.25;5.00;;;;;;;15.63;75.94;97434.95;125667;1093;103061;-76
2021/08/06 08:30:40;;;;;;;9.30;5.30;;;;;;;15.62;75.85;97448.55;125623;1095;102911;-74
2021/08/06 08:33:15;;;;;;;10.60;6.03;;;;;;;15.60;75.81;97446.03;125675;1095;103518;-76
2021/08/06 08:35:47;;;;;;;9.63;5.30;;;;;;;15.60;76.00;97456.76;125630;1095;102997;-75
2021/08/06 08:39:00;;;;;;;8.73;5.67;;;;;;;15.62;75.92;97459.27;125678;1095;101666;-75
2021/08/06 08:41:32;;;;;;;7.55;5.15;;;;;;;15.61;75.94;97462.97;125672;1095;103373;-76
2021/08/06 08:44:00;;;;;;;9.55;5.75;;;;;;;15.60;76.04;97462.11;125617;1096;102974;-74
2021/08/06 08:46:35;;;;;;;9.07;5.40;;;;;;;15.62;75.88;97470.81;125956;1093;102958;-74
2021/08/06 08:49:07;;;;;;;10.00;5.03;;;;;;;15.62;76.07;97468.13;125638;1094;103064;-75
2021/08/06 08:51:40;;;;;;;8.27;5.03;;;;;;;15.66;76.07;97468.61;125646;1092;102944;-75
2021/08/06 08:54:09;;;;;;;7.97;4.83;;;;;;;15.68;76.12;97473.77;125637;1096;102922;-75
2021/08/06 08:56:37;;;;;;;10.83;4.50;;;;;;;15.71;76.04;97484.13;125696;1095;103053;-75
2021/08/06 08:59:07;;;;;;;8.63;4.87;;;;;;;15.70;75.99;97477.10;125751;1097;102917;-78
2021/08/06 09:01:35;;;;;;;6.50;3.85;;;;;;;15.74;76.18;97483.77;125685;1094;102916;-77
2021/08/06 09:04:28;;;;;;;6.80;4.80;;;;;;;15.76;75.98;97487.91;125650;1093;102919;-79
2021/08/06 09:06:59;;;;;;;7.05;4.55;;;;;;;15.81;76.06;97489.21;125641;1093;103048;-80
2021/08/06 09:09:31;;;;;;;6.03;4.43;;;;;;;15.87;76.19;97485.83;125672;1093;103032;-76
2021/08/06 09:12:09;;;;;;;7.50;4.43;;;;;;;15.91;76.19;97487.13;125646;1094;103001;-80
2021/08/06 09:14:40;;;;;;;6.40;4.10;;;;;;;15.94;76.13;97484.08;125660;1096;102919;-76
2021/08/06 09:17:14;;;;;;;7.40;4.33;;;;;;;15.96;76.24;97487.41;125720;1094;103107;-77
2021/08/06 09:19:57;;;;;;;6.67;4.20;;;;;;;15.99;76.05;97495.09;125627;1096;102919;-77
2021/08/06 09:22:30;;;;;;;6.23;3.95;;;;;;;16.03;76.15;97500.90;125636;1095;102944;-74
2021/08/06 09:25:09;;;;;;;5.77;3.70;;;;;;;16.06;76.04;97503.22;125672;1095;102909;-74
2021/08/06 09:27:50;;;;;;;6.60;3.90;;;;;;;16.10;76.03;97503.69;125718;1095;102914;-74
2021/08/06 09:30:38;;;;;;;6.00;3.80;;;;;;;16.15;76.35;97499.42;125692;1095;103012;-75
2021/08/06 09:33:09;;;;;;;6.87;4.10;;;;;;;16.18;76.12;97507.10;125631;1093;103015;-74
2021/08/06 09:35:38;;;;;;;5.23;3.57;;;;;;;16.20;76.21;97510.43;125639;1093;103528;-75
2021/08/06 09:38:18;;;;;;;6.03;3.63;;;;;;;16.21;75.97;97525.51;125740;1095;102980;-75
2021/08/06 09:40:47;;;;;;;7.07;3.80;;;;;;;16.20;75.93;97515.80;125591;1096;103055;-75
2021/08/06 09:43:19;;;;;;;5.60;3.80;;;;;;;16.22;76.12;97518.28;125713;1095;103080;-77
2021/08/06 09:45:48;;;;;;;7.27;4.07;;;;;;;16.22;76.09;97519.13;125675;1095;102914;-76
2021/08/06 09:48:24;;;;;;;7.30;3.97;;;;;;;16.26;76.11;97521.44;125644;1095;103081;-76
2021/08/06 09:50:55;;;;;;;4.25;3.20;;;;;;;16.27;75.98;97536.52;125669;1095;102713;-78
2021/08/06 09:53:26;;;;;;;5.13;3.30;;;;;;;16.22;75.81;97531.69;125638;1095;102982;-77
2021/08/06 09:55:54;;;;;;;5.23;3.50;;;;;;;16.16;75.77;97537.80;125678;1093;103010;-76
2021/08/06 09:58:24;;;;;;;5.90;3.63;;;;;;;16.09;75.95;97537.71;125765;1093;102911;-82
2021/08/06 10:00:55;;;;;;;6.27;3.70;;;;;;;16.06;76.12;97544.29;125590;1096;103061;-77
2021/08/06 10:03:35;;;;;;;6.27;3.60;;;;;;;16.06;75.91;97540.77;125666;1094;102929;-76
2021/08/06 10:06:14;;;;;;;6.67;3.70;;;;;;;16.02;76.20;97552.87;125699;1096;103505;-76
2021/08/06 10:08:44;;;;;;;5.47;3.77;;;;;;;15.99;75.92;97550.55;125673;1095;103090;-78
2021/08/06 10:11:15;;;;;;;6.83;3.90;;;;;;;15.97;75.82;97557.95;125651;1093;103090;-74
2021/08/06 10:13:48;;;;;;;6.97;3.90;;;;;;;15.97;76.03;97557.95;125645;1096;103012;-76
2021/08/06 10:16:16;;;;;;;8.07;4.10;;;;;;;15.97;75.98;97560.63;125684;1095;102999;-76
2021/08/06 10:18:49;;;;;;;8.00;4.23;;;;;;;15.96;76.14;97562.49;125724;1096;102922;-74
2021/08/06 10:21:17;;;;;;;7.23;3.90;;;;;;;15.96;76.07;97564.33;125700;1095;102920;-77
2021/08/06 10:23:48;;;;;;;7.70;3.70;;;;;;;15.96;76.17;97557.13;125669;1095;102916;-78
2021/08/06 10:26:17;;;;;;;6.07;3.90;;;;;;;16.01;76.11;97564.61;125641;1093;102914;-73
2021/08/06 10:28:46;;;;;;;8.70;3.70;;;;;;;16.01;75.96;97564.61;125721;1093;102916;-74
2021/08/06 10:31:21;;;;;;;5.43;3.73;;;;;;;16.02;75.91;97564.45;125627;1093;103093;-80
2021/08/06 10:34:09;;;;;;;8.50;3.60;;;;;;;16.03;76.03;97559.90;125668;1096;103446;-74
2021/08/06 10:36:45;;;;;;;8.03;4.03;;;;;;;16.04;76.10;97562.41;125755;1095;103058;-77
2021/08/06 10:39:36;;;;;;;4.80;3.73;;;;;;;16.04;75.81;97570.45;125674;1095;102948;-76
2021/08/06 10:42:10;;;;;;;7.97;3.80;;;;;;;16.04;75.91;97578.50;125704;1095;101752;-83
2021/08/06 10:44:57;;;;;;;8.73;3.87;;;;;;;16.06;76.07;97570.26;125873;1095;102936;-74
2021/08/06 10:48:05;;;;;;;9.07;3.90;;;;;;;16.13;75.96;97562.30;125754;1095;103126;-80
2021/08/06 10:50:34;;;;;;;7.37;3.93;;;;;;;16.13;75.85;97573.03;125393;1099;103135;-80
2021/08/06 10:53:17;;;;;;;7.87;4.40;;;;;;;16.14;76.05;97572.02;125621;1095;103025;-80
2021/08/06 10:55:46;;;;;;;7.33;4.27;;;;;;;16.13;75.76;97562.30;125694;1094;102951;-78
2021/08/06 10:58:54;;;;;;;5.17;3.50;;;;;;;16.11;75.72;97577.74;125637;1095;102945;-79
2021/08/06 11:01:32;;;;;;;6.65;3.80;;;;;;;16.13;75.74;97578.39;125749;1094;103543;-80
2021/08/06 11:04:27;;;;;;;6.67;3.70;;;;;;;16.14;76.08;97582.74;125686;1095;103027;-82
2021/08/06 11:07:02;;;;;;;10.85;3.60;;;;;;;16.19;75.85;97585.70;125717;1095;102915;-83
2021/08/06 11:09:33;;;;;;;5.20;3.30;;;;;;;16.18;75.93;97581.36;125759;1096;103450;-84
2021/08/06 11:12:11;;;;;;;4.90;3.20;;;;;;;16.22;75.88;97585.34;125896;1096;102942;-85
2021/08/06 11:14:40;;;;;;;4.30;3.37;;;;;;;16.28;75.87;97603.39;125893;1096;103015;-83
2021/08/06 11:17:32;;;;;;;6.93;3.10;;;;;;;16.32;75.84;97593.95;125675;1095;102942;-80
2021/08/06 11:20:26;;;;;;;3.10;2.40;;;;;;;16.37;75.62;97588.88;125665;1095;102994;-81
2021/08/06 11:22:54;;;;;;;4.90;2.80;;;;;;;16.38;75.73;97589.69;125583;1096;103085;-80
2021/08/06 11:25:25;;;;;;;4.13;2.73;;;;;;;16.38;75.55;97589.69;125563;1093;103010;-81
2021/08/06 11:28:00;;;;;;;7.30;2.90;;;;;;;16.43;75.71;97595.34;125549;1096;102975;-83
2021/08/06 11:30:35;;;;;;;4.10;2.50;;;;;;;16.47;75.67;97595.82;125840;1096;102922;-82
2021/08/06 11:33:10;;;;;;;3.90;2.67;;;;;;;16.55;75.96;97598.38;125508;1096;103023;-81
2021/08/06 11:35:44;;;;;;;5.68;2.50;;;;;;;16.62;75.89;97617.28;125515;1096;103012;-83
2021/08/06 11:38:15;;;;;;;4.87;2.30;;;;;;;16.60;75.86;97617.45;125779;1096;103077;-82